createdAt,value
2023-02-26T00:00:39.083Z,99.99
2023-02-26T00:01:39.312Z,99.99
2023-02-26T00:02:39.522Z,99.99
2023-02-26T00:03:39.717Z,99.99
2023-02-26T00:04:39.969Z,99.99
2023-02-26T00:05:40.173Z,99.99
2023-02-26T00:06:40.421Z,99.99
2023-02-26T00:07:40.642Z,99.99
2023-02-26T00:08:40.832Z,99.99
2023-02-26T00:09:41.052Z,99.99
2023-02-26T00:10:41.250Z,99.99
2023-02-26T00:11:41.536Z,99.99
2023-02-26T00:12:41.748Z,99.99
2023-02-26T00:13:41.935Z,99.99
2023-02-26T00:14:42.053Z,99.99
2023-02-26T00:15:42.262Z,99.99
2023-02-26T00:16:42.514Z,99.99
2023-02-26T00:17:42.743Z,99.99
2023-02-26T00:18:42.981Z,99.99
2023-02-26T00:19:43.204Z,99.99
2023-02-26T00:20:43.401Z,99.99
2023-02-26T00:21:43.630Z,99.99
2023-02-26T00:22:43.851Z,99.99
2023-02-26T00:23:44.084Z,99.99
2023-02-26T00:24:44.269Z,99.99
2023-02-26T00:25:44.502Z,99.99
2023-02-26T00:26:44.700Z,99.99
2023-02-26T00:27:44.912Z,99.99
2023-02-26T00:28:45.126Z,99.99
2023-02-26T00:29:45.317Z,99.99
2023-02-26T00:30:45.589Z,99.99
2023-02-26T00:31:45.911Z,99.99
2023-02-26T00:32:46.003Z,99.99
2023-02-26T00:33:46.097Z,99.99
2023-02-26T00:34:46.293Z,99.99
2023-02-26T00:35:46.523Z,99.99
2023-02-26T00:36:46.764Z,99.99
2023-02-26T00:37:46.980Z,99.99
2023-02-26T00:38:47.186Z,99.99
2023-02-26T00:39:47.414Z,99.99
2023-02-26T00:40:47.634Z,99.99
2023-02-26T00:41:47.853Z,99.99
2023-02-26T00:42:48.062Z,99.99
2023-02-26T00:43:48.285Z,99.99
2023-02-26T00:44:48.504Z,99.99
2023-02-26T00:45:48.740Z,99.99
2023-02-26T00:46:48.984Z,99.99
2023-02-26T00:47:49.218Z,99.99
2023-02-26T00:48:49.423Z,99.99
2023-02-26T00:49:49.640Z,99.99
2023-02-26T00:50:49.879Z,99.99
2023-02-26T00:51:50.125Z,99.99
2023-02-26T00:52:50.351Z,99.99
2023-02-26T00:53:50.559Z,99.99
2023-02-26T00:54:50.761Z,99.99
2023-02-26T00:55:50.978Z,99.99
2023-02-26T00:56:51.192Z,99.99
2023-02-26T00:57:51.396Z,99.99
2023-02-26T00:58:51.587Z,99.99
2023-02-26T00:59:51.805Z,99.99
2023-02-26T01:00:51.979Z,99.99
2023-02-26T01:01:52.223Z,99.99
2023-02-26T01:02:52.394Z,99.99
2023-02-26T01:03:52.657Z,99.99
2023-02-26T01:04:52.854Z,99.99
2023-02-26T01:05:53.084Z,99.99
2023-02-26T01:06:53.286Z,99.99
2023-02-26T01:07:53.515Z,99.82
2023-02-26T01:08:53.708Z,99.82
2023-02-26T01:09:53.944Z,99.99
2023-02-26T01:10:54.154Z,99.82
2023-02-26T01:11:54.373Z,99.71
2023-02-26T01:12:54.573Z,99.71
2023-02-26T01:13:54.763Z,99.82
2023-02-26T01:14:54.964Z,99.82
2023-02-26T01:15:55.188Z,99.92
2023-02-26T01:16:55.382Z,99.99
2023-02-26T01:17:55.578Z,99.82
2023-02-26T01:18:55.768Z,99.77
2023-02-26T01:19:55.954Z,99.71
2023-02-26T01:20:56.132Z,99.77
2023-02-26T01:21:56.348Z,99.88
2023-02-26T01:22:56.559Z,99.77
2023-02-26T01:23:56.757Z,99.66
2023-02-26T01:24:57.005Z,99.46
2023-02-26T01:25:57.200Z,99.35
2023-02-26T01:26:57.403Z,99.35
2023-02-26T01:27:57.605Z,99.25
2023-02-26T01:28:57.786Z,99.04
2023-02-26T01:29:57.997Z,99.15
2023-02-26T01:30:58.290Z,99.25
2023-02-26T01:31:58.624Z,99.04
2023-02-26T01:32:58.616Z,99.04
2023-02-26T01:33:58.832Z,98.93
2023-02-26T01:34:59.010Z,98.83
2023-02-26T01:35:59.227Z,98.72
2023-02-26T01:36:59.446Z,99.04
2023-02-26T01:37:59.634Z,99.25
2023-02-26T01:38:59.832Z,99.15
2023-02-26T01:40:00.016Z,98.93
2023-02-26T01:41:00.211Z,98.62
2023-02-26T01:42:00.419Z,98.31
2023-02-26T01:43:00.630Z,98.21
2023-02-26T01:44:00.833Z,98.31
2023-02-26T01:45:01.019Z,98.62
2023-02-26T01:46:01.229Z,98.41
2023-02-26T01:47:01.449Z,98.10
2023-02-26T01:48:01.660Z,97.78
2023-02-26T01:49:01.860Z,98.10
2023-02-26T01:50:02.044Z,98.41
2023-02-26T01:51:02.234Z,98.10
2023-02-26T01:52:02.446Z,97.58
2023-02-26T01:53:02.693Z,97.58
2023-02-26T01:54:02.886Z,97.58
2023-02-26T01:55:03.080Z,97.37
2023-02-26T01:56:03.267Z,97.37
2023-02-26T01:57:03.473Z,97.27
2023-02-26T01:58:03.694Z,97.37
2023-02-26T01:59:03.889Z,97.58
2023-02-26T02:00:04.081Z,97.37
2023-02-26T02:01:04.288Z,97.27
2023-02-26T02:02:04.480Z,97.05
2023-02-26T02:03:04.727Z,96.95
2023-02-26T02:04:04.910Z,97.37
2023-02-26T02:05:05.107Z,97.78
2023-02-26T02:06:05.398Z,97.68
2023-02-26T02:07:05.488Z,97.78
2023-02-26T02:08:05.749Z,97.58
2023-02-26T02:09:05.827Z,97.27
2023-02-26T02:10:06.021Z,97.05
2023-02-26T02:11:06.221Z,97.27
2023-02-26T02:12:06.418Z,97.47
2023-02-26T02:13:06.602Z,97.68
2023-02-26T02:14:06.814Z,97.58
2023-02-26T02:15:07.007Z,96.74
2023-02-26T02:16:07.237Z,97.16
2023-02-26T02:17:07.409Z,96.74
2023-02-26T02:18:07.602Z,96.43
2023-02-26T02:19:07.842Z,96.33
2023-02-26T02:20:07.992Z,96.84
2023-02-26T02:21:08.160Z,96.74
2023-02-26T02:22:08.362Z,96.64
2023-02-26T02:23:08.545Z,96.33
2023-02-26T02:24:08.737Z,96.53
2023-02-26T02:25:08.908Z,96.64
2023-02-26T02:26:09.108Z,96.95
2023-02-26T02:27:09.307Z,97.05
2023-02-26T02:28:09.501Z,97.05
2023-02-26T02:29:09.731Z,97.05
2023-02-26T02:30:09.906Z,96.95
2023-02-26T02:31:10.122Z,96.84
2023-02-26T02:32:10.465Z,97.05
2023-02-26T02:33:10.478Z,97.27
2023-02-26T02:34:10.665Z,96.84
2023-02-26T02:35:10.853Z,96.91
2023-02-26T02:36:11.070Z,96.64
2023-02-26T02:37:11.279Z,96.53
2023-02-26T02:38:11.514Z,96.22
2023-02-26T02:39:11.702Z,96.11
2023-02-26T02:40:11.901Z,96.01
2023-02-26T02:41:12.146Z,95.28
2023-02-26T02:42:12.400Z,95.17
2023-02-26T02:43:12.680Z,95.80
2023-02-26T02:44:12.767Z,95.38
2023-02-26T02:45:12.952Z,95.49
2023-02-26T02:46:13.237Z,96.17
2023-02-26T02:47:13.358Z,96.11
2023-02-26T02:48:13.561Z,95.97
2023-02-26T02:49:13.753Z,95.59
2023-02-26T02:50:13.957Z,95.80
2023-02-26T02:51:14.117Z,96.07
2023-02-26T02:52:14.315Z,96.28
2023-02-26T02:53:14.491Z,95.97
2023-02-26T02:54:14.715Z,96.07
2023-02-26T02:55:14.876Z,95.59
2023-02-26T02:56:15.075Z,95.17
2023-02-26T02:57:15.262Z,94.96
2023-02-26T02:58:15.474Z,94.96
2023-02-26T02:59:15.674Z,95.07
2023-02-26T03:00:15.868Z,94.44
2023-02-26T03:01:16.097Z,95.07
2023-02-26T03:02:16.379Z,95.28
2023-02-26T03:03:16.470Z,95.07
2023-02-26T03:04:16.652Z,95.38
2023-02-26T03:05:16.819Z,95.49
2023-02-26T03:06:24.021Z,95.49
2023-02-26T03:07:17.181Z,95.07
2023-02-26T03:08:17.370Z,94.65
2023-02-26T03:09:17.566Z,94.55
2023-02-26T03:10:17.749Z,94.96
2023-02-26T03:11:17.925Z,95.28
2023-02-26T03:12:18.158Z,95.49
2023-02-26T03:13:18.373Z,95.59
2023-02-26T03:14:18.574Z,95.59
2023-02-26T03:15:18.756Z,95.76
2023-02-26T03:16:19.016Z,95.17
2023-02-26T03:17:19.217Z,94.86
2023-02-26T03:18:19.403Z,94.76
2023-02-26T03:19:19.582Z,94.96
2023-02-26T03:20:19.781Z,94.96
2023-02-26T03:21:19.957Z,94.86
2023-02-26T03:22:20.155Z,94.76
2023-02-26T03:23:20.336Z,94.76
2023-02-26T03:24:20.552Z,94.86
2023-02-26T03:25:20.718Z,94.65
2023-02-26T03:26:20.920Z,94.70
2023-02-26T03:27:21.111Z,95.07
2023-02-26T03:28:21.292Z,95.49
2023-02-26T03:29:21.466Z,95.38
2023-02-26T03:30:21.658Z,95.70
2023-02-26T03:31:21.960Z,96.01
2023-02-26T03:32:22.249Z,95.49
2023-02-26T03:33:22.336Z,95.07
2023-02-26T03:34:22.516Z,95.17
2023-02-26T03:35:22.709Z,95.49
2023-02-26T03:36:23.349Z,95.07
2023-02-26T03:37:23.153Z,95.17
2023-02-26T03:38:23.327Z,95.38
2023-02-26T03:39:23.512Z,95.17
2023-02-26T03:40:23.692Z,94.86
2023-02-26T03:41:23.875Z,95.17
2023-02-26T03:42:24.064Z,95.38
2023-02-26T03:43:24.250Z,95.07
2023-02-26T03:44:24.439Z,94.76
2023-02-26T03:45:24.625Z,94.76
2023-02-26T03:46:25.098Z,95.07
2023-02-26T03:47:25.034Z,94.96
2023-02-26T03:48:25.230Z,95.90
2023-02-26T03:49:25.415Z,95.80
2023-02-26T03:50:25.593Z,95.17
2023-02-26T03:51:25.799Z,94.86
2023-02-26T03:52:25.977Z,95.07
2023-02-26T03:53:26.162Z,95.07
2023-02-26T03:54:26.331Z,95.28
2023-02-26T03:55:26.523Z,95.59
2023-02-26T03:56:27.029Z,96.01
2023-02-26T03:57:26.953Z,96.33
2023-02-26T03:58:27.130Z,96.33
2023-02-26T03:59:27.316Z,95.90
2023-02-26T04:00:27.482Z,95.49
2023-02-26T04:01:27.671Z,95.59
2023-02-26T04:02:27.894Z,95.97
2023-02-26T04:03:28.104Z,95.80
2023-02-26T04:04:28.323Z,95.49
2023-02-26T04:05:28.488Z,95.59
2023-02-26T04:06:28.660Z,95.49
2023-02-26T04:07:28.862Z,95.07
2023-02-26T04:08:29.030Z,95.07
2023-02-26T04:09:29.214Z,94.96
2023-02-26T04:10:29.380Z,94.96
2023-02-26T04:11:29.557Z,95.07
2023-02-26T04:12:29.769Z,95.38
2023-02-26T04:13:29.954Z,95.17
2023-02-26T04:14:30.123Z,95.17
2023-02-26T04:15:30.307Z,95.28
2023-02-26T04:16:30.545Z,95.44
2023-02-26T04:17:30.720Z,95.65
2023-02-26T04:18:30.888Z,95.65
2023-02-26T04:19:31.064Z,95.34
2023-02-26T04:20:31.211Z,95.44
2023-02-26T04:21:31.398Z,94.96
2023-02-26T04:22:31.582Z,95.13
2023-02-26T04:23:31.753Z,95.44
2023-02-26T04:24:31.946Z,95.65
2023-02-26T04:25:32.128Z,95.65
2023-02-26T04:26:32.293Z,95.65
2023-02-26T04:27:32.470Z,95.38
2023-02-26T04:28:32.627Z,95.17
2023-02-26T04:29:32.798Z,95.07
2023-02-26T04:30:33.016Z,95.13
2023-02-26T04:31:33.260Z,95.13
2023-02-26T04:32:33.577Z,95.23
2023-02-26T04:33:33.696Z,95.23
2023-02-26T04:34:33.928Z,95.03
2023-02-26T04:35:34.175Z,95.13
2023-02-26T04:36:34.352Z,94.92
2023-02-26T04:37:34.555Z,94.82
2023-02-26T04:38:34.765Z,94.61
2023-02-26T04:39:34.922Z,94.19
2023-02-26T04:40:35.094Z,94.09
2023-02-26T04:41:35.268Z,94.71
2023-02-26T04:42:35.460Z,94.71
2023-02-26T04:43:35.655Z,94.19
2023-02-26T04:44:35.820Z,93.71
2023-02-26T04:45:36.027Z,93.61
2023-02-26T04:46:36.236Z,94.19
2023-02-26T04:47:36.403Z,94.50
2023-02-26T04:48:36.584Z,94.50
2023-02-26T04:49:36.773Z,93.88
2023-02-26T04:50:36.952Z,93.77
2023-02-26T04:51:37.138Z,94.50
2023-02-26T04:52:37.332Z,94.19
2023-02-26T04:53:37.523Z,93.67
2023-02-26T04:54:37.689Z,92.94
2023-02-26T04:55:37.879Z,93.25
2023-02-26T04:56:38.064Z,93.35
2023-02-26T04:57:38.261Z,93.57
2023-02-26T04:58:38.443Z,93.57
2023-02-26T04:59:38.617Z,93.77
2023-02-26T05:00:38.814Z,93.67
2023-02-26T05:01:39.067Z,94.09
2023-02-26T05:02:39.196Z,94.61
2023-02-26T05:03:39.422Z,93.57
2023-02-26T05:04:39.713Z,93.15
2023-02-26T05:05:39.822Z,92.73
2023-02-26T05:06:40.009Z,92.63
2023-02-26T05:07:40.201Z,92.73
2023-02-26T05:08:40.379Z,92.52
2023-02-26T05:09:40.572Z,92.73
2023-02-26T05:10:40.747Z,93.25
2023-02-26T05:11:40.966Z,93.15
2023-02-26T05:12:41.180Z,93.15
2023-02-26T05:13:41.365Z,92.52
2023-02-26T05:14:41.556Z,92.52
2023-02-26T05:15:41.798Z,93.15
2023-02-26T05:16:42.010Z,93.04
2023-02-26T05:17:42.210Z,93.04
2023-02-26T05:18:42.400Z,93.15
2023-02-26T05:19:42.602Z,93.04
2023-02-26T05:20:42.772Z,93.25
2023-02-26T05:21:42.979Z,92.52
2023-02-26T05:22:43.189Z,92.83
2023-02-26T05:23:43.378Z,92.83
2023-02-26T05:24:43.557Z,92.73
2023-02-26T05:25:43.750Z,92.52
2023-02-26T05:26:43.940Z,92.00
2023-02-26T05:27:44.180Z,92.21
2023-02-26T05:28:44.375Z,92.41
2023-02-26T05:29:44.723Z,92.10
2023-02-26T05:30:44.827Z,92.10
2023-02-26T05:31:45.086Z,92.10
2023-02-26T05:32:45.163Z,92.52
2023-02-26T05:33:45.416Z,92.63
2023-02-26T05:34:45.634Z,92.21
2023-02-26T05:35:45.877Z,92.00
2023-02-26T05:36:46.109Z,92.10
2023-02-26T05:37:46.341Z,91.69
2023-02-26T05:38:46.588Z,91.58
2023-02-26T05:39:46.836Z,91.06
2023-02-26T05:40:47.072Z,90.75
2023-02-26T05:41:47.334Z,91.27
2023-02-26T05:42:47.593Z,91.27
2023-02-26T05:43:47.740Z,91.37
2023-02-26T05:44:47.959Z,90.01
2023-02-26T05:45:48.210Z,90.12
2023-02-26T05:46:48.510Z,91.27
2023-02-26T05:47:48.659Z,91.47
2023-02-26T05:48:48.772Z,91.47
2023-02-26T05:49:49.016Z,91.79
2023-02-26T05:50:49.203Z,91.79
2023-02-26T05:51:49.401Z,91.89
2023-02-26T05:52:49.609Z,92.10
2023-02-26T05:53:49.821Z,92.52
2023-02-26T05:54:50.021Z,92.83
2023-02-26T05:55:50.225Z,91.89
2023-02-26T05:56:50.428Z,91.16
2023-02-26T05:57:50.645Z,91.27
2023-02-26T05:58:50.843Z,90.85
2023-02-26T05:59:51.051Z,90.64
2023-02-26T06:00:51.253Z,91.27
2023-02-26T06:01:51.484Z,91.79
2023-02-26T06:02:51.680Z,91.37
2023-02-26T06:03:51.860Z,90.64
2023-02-26T06:04:52.058Z,90.64
2023-02-26T06:05:52.271Z,90.95
2023-02-26T06:06:52.459Z,90.95
2023-02-26T06:07:52.675Z,90.95
2023-02-26T06:08:52.863Z,90.75
2023-02-26T06:09:53.064Z,91.12
2023-02-26T06:10:53.252Z,91.02
2023-02-26T06:11:53.470Z,90.91
2023-02-26T06:12:53.684Z,90.50
2023-02-26T06:13:53.871Z,90.28
2023-02-26T06:14:54.064Z,91.33
2023-02-26T06:15:54.351Z,91.02
2023-02-26T06:16:54.427Z,89.97
2023-02-26T06:17:54.644Z,89.39
2023-02-26T06:18:54.855Z,89.49
2023-02-26T06:19:55.034Z,89.59
2023-02-26T06:20:55.232Z,89.59
2023-02-26T06:21:55.426Z,89.28
2023-02-26T06:22:55.633Z,89.70
2023-02-26T06:23:55.843Z,90.01
2023-02-26T06:24:56.043Z,90.39
2023-02-26T06:25:56.253Z,89.87
2023-02-26T06:26:56.448Z,90.18
2023-02-26T06:27:56.656Z,89.76
2023-02-26T06:28:56.851Z,89.56
2023-02-26T06:29:57.046Z,89.24
2023-02-26T06:30:57.319Z,89.45
2023-02-26T06:31:57.660Z,89.14
2023-02-26T06:32:57.714Z,89.76
2023-02-26T06:33:57.911Z,89.97
2023-02-26T06:34:58.115Z,89.97
2023-02-26T06:35:58.360Z,89.72
2023-02-26T06:36:58.543Z,88.82
2023-02-26T06:37:58.776Z,88.47
2023-02-26T06:38:58.982Z,89.10
2023-02-26T06:39:59.164Z,89.10
2023-02-26T06:40:59.346Z,88.37
2023-02-26T06:41:59.543Z,88.26
2023-02-26T06:42:59.752Z,88.78
2023-02-26T06:43:59.941Z,88.06
2023-02-26T06:45:00.139Z,87.74
2023-02-26T06:46:00.401Z,88.68
2023-02-26T06:47:00.497Z,88.57
2023-02-26T06:48:00.707Z,88.16
2023-02-26T06:49:00.884Z,87.74
2023-02-26T06:50:01.069Z,88.01
2023-02-26T06:51:01.255Z,88.01
2023-02-26T06:52:01.443Z,87.60
2023-02-26T06:53:01.633Z,86.66
2023-02-26T06:54:01.829Z,86.97
2023-02-26T06:55:02.007Z,87.70
2023-02-26T06:56:02.220Z,87.60
2023-02-26T06:57:02.394Z,87.49
2023-02-26T06:58:02.594Z,88.18
2023-02-26T06:59:02.777Z,86.61
2023-02-26T07:00:03.065Z,86.61
2023-02-26T07:01:03.166Z,86.93
2023-02-26T07:02:03.389Z,87.41
2023-02-26T07:03:03.579Z,87.12
2023-02-26T07:04:03.780Z,83.25
2023-02-26T07:05:03.959Z,78.58
2023-02-26T07:06:25.662Z,75.53
2023-02-26T07:07:05.366Z,73.43
2023-02-26T07:08:04.542Z,69.51
2023-02-26T07:09:04.733Z,67.86
2023-02-26T07:10:04.831Z,68.58
2023-02-26T07:11:05.056Z,69.37
2023-02-26T07:12:05.281Z,71.43
2023-02-26T07:13:05.528Z,72.63
2023-02-26T07:14:05.736Z,75.54
2023-02-26T07:15:05.949Z,77.68
2023-02-26T07:16:06.165Z,78.23
2023-02-26T07:17:06.393Z,79.00
2023-02-26T07:18:06.610Z,81.12
2023-02-26T07:19:06.706Z,80.80
2023-02-26T07:20:06.945Z,81.22
2023-02-26T07:21:07.165Z,81.22
2023-02-26T07:22:07.455Z,82.20
2023-02-26T07:23:07.551Z,82.92
2023-02-26T07:24:07.777Z,81.88
2023-02-26T07:25:07.894Z,82.92
2023-02-26T07:26:08.121Z,82.61
2023-02-26T07:27:08.347Z,84.69
2023-02-26T07:28:08.626Z,85.21
2023-02-26T07:29:08.754Z,84.59
2023-02-26T07:30:09.065Z,83.65
2023-02-26T07:31:09.330Z,83.34
2023-02-26T07:32:09.447Z,82.92
2023-02-26T07:33:09.498Z,82.57
2023-02-26T07:34:09.692Z,81.84
2023-02-26T07:35:09.838Z,81.84
2023-02-26T07:36:10.008Z,81.43
2023-02-26T07:37:10.166Z,82.57
2023-02-26T07:38:10.326Z,81.12
2023-02-26T07:39:10.476Z,82.12
2023-02-26T07:40:10.645Z,79.38
2023-02-26T07:41:10.777Z,79.65
2023-02-26T07:42:11.037Z,78.47
2023-02-26T07:43:11.191Z,77.61
2023-02-26T07:44:11.310Z,76.26
2023-02-26T07:45:11.543Z,75.88
2023-02-26T07:46:11.847Z,72.19
2023-02-26T07:47:11.988Z,68.04
2023-02-26T07:48:12.215Z,65.58
2023-02-26T07:49:12.323Z,62.97
2023-02-26T07:50:12.519Z,63.76
2023-02-26T07:51:12.727Z,63.40
2023-02-26T07:52:12.916Z,63.00
2023-02-26T07:53:13.134Z,62.12
2023-02-26T07:54:13.287Z,58.21
2023-02-26T07:55:13.456Z,59.54
2023-02-26T07:56:13.615Z,59.00
2023-02-26T07:57:13.768Z,59.72
2023-02-26T07:58:13.936Z,58.26
2023-02-26T07:59:14.073Z,58.84
2023-02-26T08:00:14.239Z,57.92
2023-02-26T08:01:14.404Z,59.56
2023-02-26T08:02:14.531Z,59.50
2023-02-26T08:03:14.684Z,56.92
2023-02-26T08:04:14.827Z,57.53
2023-02-26T08:05:14.960Z,57.33
2023-02-26T08:06:15.118Z,56.59
2023-02-26T08:07:15.252Z,58.07
2023-02-26T08:08:15.414Z,55.90
2023-02-26T08:09:15.546Z,55.94
2023-02-26T08:10:15.661Z,54.61
2023-02-26T08:11:15.780Z,57.53
2023-02-26T08:12:15.898Z,54.87
2023-02-26T08:13:16.043Z,53.64
2023-02-26T08:14:16.155Z,54.18
2023-02-26T08:15:16.269Z,55.97
2023-02-26T08:16:16.470Z,54.16
2023-02-26T08:17:16.466Z,53.57
2023-02-26T08:18:16.576Z,53.23
2023-02-26T08:19:16.688Z,55.58
2023-02-26T08:20:16.790Z,53.72
2023-02-26T08:21:16.897Z,54.64
2023-02-26T08:22:16.981Z,52.50
2023-02-26T08:23:17.110Z,51.70
2023-02-26T08:24:17.206Z,53.72
2023-02-26T08:25:17.338Z,53.21
2023-02-26T08:26:17.436Z,52.70
2023-02-26T08:27:17.524Z,52.09
2023-02-26T08:28:17.651Z,52.62
2023-02-26T08:29:17.765Z,53.28
2023-02-26T08:30:17.874Z,52.98
2023-02-26T08:31:18.142Z,52.87
2023-02-26T08:32:18.134Z,53.75
2023-02-26T08:33:18.196Z,51.78
2023-02-26T08:34:18.293Z,51.93
2023-02-26T08:35:18.394Z,52.91
2023-02-26T08:36:18.474Z,52.67
2023-02-26T08:37:18.593Z,52.75
2023-02-26T08:38:18.696Z,50.51
2023-02-26T08:39:18.782Z,49.95
2023-02-26T08:40:18.861Z,54.79
2023-02-26T08:41:18.944Z,54.64
2023-02-26T08:42:19.033Z,55.28
2023-02-26T08:43:19.158Z,52.14
2023-02-26T08:44:19.224Z,52.50
2023-02-26T08:45:19.333Z,50.68
2023-02-26T08:46:19.428Z,51.81
2023-02-26T08:47:28.370Z,53.83
2023-02-26T08:48:20.542Z,51.15
2023-02-26T08:49:19.628Z,50.51
2023-02-26T08:50:19.706Z,51.28
2023-02-26T08:51:19.788Z,50.05
2023-02-26T08:52:19.870Z,49.29
2023-02-26T08:53:19.960Z,48.46
2023-02-26T08:54:20.071Z,47.46
2023-02-26T08:55:20.154Z,49.32
2023-02-26T08:56:20.219Z,49.93
2023-02-26T08:57:20.313Z,49.40
2023-02-26T08:58:20.376Z,47.38
2023-02-26T08:59:20.456Z,49.04
2023-02-26T09:00:20.529Z,48.52
2023-02-26T09:01:20.600Z,48.44
2023-02-26T09:02:20.659Z,48.83
2023-02-26T09:03:20.727Z,50.08
2023-02-26T09:04:20.801Z,48.55
2023-02-26T09:05:20.887Z,49.04
2023-02-26T09:07:18.941Z,49.83
2023-02-26T09:08:19.006Z,48.99
2023-02-26T09:09:19.187Z,46.47
2023-02-26T09:10:19.380Z,48.11
2023-02-26T09:11:19.527Z,46.75
2023-02-26T09:12:19.715Z,47.20
2023-02-26T09:13:19.887Z,49.93
2023-02-26T09:14:20.042Z,46.85
2023-02-26T09:15:20.238Z,48.60
2023-02-26T09:16:20.456Z,48.89
2023-02-26T09:17:20.596Z,47.44
2023-02-26T09:18:20.763Z,48.00
2023-02-26T09:19:20.926Z,46.72
2023-02-26T09:20:21.098Z,46.42
2023-02-26T09:21:21.293Z,47.24
2023-02-26T09:22:21.486Z,47.24
2023-02-26T09:23:21.655Z,48.00
2023-02-26T09:24:21.852Z,47.19
2023-02-26T09:25:24.531Z,45.67
2023-02-26T09:26:22.138Z,45.97
2023-02-26T09:27:22.322Z,45.44
2023-02-26T09:28:22.496Z,45.84
2023-02-26T09:29:22.652Z,43.73
2023-02-26T09:30:22.867Z,45.65
2023-02-26T09:31:23.051Z,47.19
2023-02-26T09:32:23.254Z,50.27
2023-02-26T09:33:23.306Z,47.53
2023-02-26T09:34:23.464Z,46.92
2023-02-26T09:35:23.650Z,46.97
2023-02-26T09:36:24.143Z,45.53
2023-02-26T09:37:23.949Z,46.85
2023-02-26T09:38:24.137Z,45.79
2023-02-26T09:39:24.291Z,46.90
2023-02-26T09:40:24.453Z,50.66
2023-02-26T09:41:24.617Z,49.13
2023-02-26T09:42:24.785Z,46.75
2023-02-26T09:43:24.976Z,46.91
2023-02-26T09:44:25.139Z,45.10
2023-02-26T09:45:25.425Z,45.67
2023-02-26T09:46:25.863Z,44.24
2023-02-26T09:47:25.590Z,44.46
2023-02-26T09:48:25.738Z,44.36
2023-02-26T09:49:25.905Z,44.16
2023-02-26T09:50:26.076Z,44.45
2023-02-26T09:51:26.221Z,44.91
2023-02-26T09:52:26.385Z,44.30
2023-02-26T09:53:26.484Z,42.55
2023-02-26T09:54:26.614Z,43.00
2023-02-26T09:55:26.774Z,44.83
2023-02-26T09:56:27.217Z,44.59
2023-02-26T09:57:27.111Z,43.98
2023-02-26T09:58:27.255Z,42.72
2023-02-26T09:59:27.390Z,42.02
2023-02-26T10:00:27.564Z,43.65
2023-02-26T10:01:27.747Z,42.00
2023-02-26T10:02:27.890Z,43.04
2023-02-26T10:03:28.072Z,44.30
2023-02-26T10:04:28.269Z,42.83
2023-02-26T10:05:28.312Z,43.06
2023-02-26T10:06:28.807Z,45.28
2023-02-26T10:07:28.613Z,43.29
2023-02-26T10:08:28.831Z,43.18
2023-02-26T10:09:28.870Z,44.32
2023-02-26T10:10:29.024Z,44.98
2023-02-26T10:11:29.173Z,45.81
2023-02-26T10:12:29.326Z,47.41
2023-02-26T10:13:29.502Z,49.40
2023-02-26T10:14:29.670Z,50.16
2023-02-26T10:15:29.844Z,51.05
2023-02-26T10:16:30.577Z,52.61
2023-02-26T10:17:30.150Z,53.38
2023-02-26T10:18:30.360Z,53.12
2023-02-26T10:19:30.544Z,54.90
2023-02-26T10:20:30.776Z,55.74
2023-02-26T10:21:30.988Z,54.43
2023-02-26T10:22:31.087Z,54.56
2023-02-26T10:23:31.273Z,54.92
2023-02-26T10:24:31.467Z,53.81
2023-02-26T10:25:31.728Z,53.43
2023-02-26T10:26:31.924Z,53.25
2023-02-26T10:27:32.128Z,52.44
2023-02-26T10:28:32.322Z,51.23
2023-02-26T10:29:32.512Z,52.20
2023-02-26T10:30:32.809Z,49.55
2023-02-26T10:31:32.974Z,50.10
2023-02-26T10:32:33.157Z,48.40
2023-02-26T10:33:33.300Z,47.08
2023-02-26T10:34:33.502Z,46.81
2023-02-26T10:35:33.698Z,46.11
2023-02-26T10:36:33.881Z,42.94
2023-02-26T10:37:34.059Z,42.21
2023-02-26T10:38:34.240Z,42.68
2023-02-26T10:39:34.408Z,42.17
2023-02-26T10:40:34.596Z,40.59
2023-02-26T10:41:34.773Z,40.06
2023-02-26T10:42:34.918Z,39.26
2023-02-26T10:43:35.069Z,39.65
2023-02-26T10:44:35.227Z,38.70
2023-02-26T10:45:35.483Z,37.08
2023-02-26T10:46:35.503Z,38.62
2023-02-26T10:47:35.642Z,38.81
2023-02-26T10:48:35.792Z,39.68
2023-02-26T10:49:35.916Z,37.25
2023-02-26T10:50:36.067Z,37.77
2023-02-26T10:51:36.208Z,36.82
2023-02-26T10:52:36.353Z,38.70
2023-02-26T10:53:36.469Z,36.98
2023-02-26T10:54:36.603Z,38.20
2023-02-26T10:55:36.740Z,37.20
2023-02-26T10:56:36.931Z,39.46
2023-02-26T10:57:37.038Z,41.06
2023-02-26T10:58:37.189Z,42.41
2023-02-26T10:59:37.339Z,44.92
2023-02-26T11:00:37.528Z,44.41
2023-02-26T11:01:37.741Z,41.63
2023-02-26T11:02:37.857Z,40.11
2023-02-26T11:03:38.010Z,41.69
2023-02-26T11:04:38.185Z,42.69
2023-02-26T11:05:38.352Z,43.98
2023-02-26T11:06:38.517Z,42.55
2023-02-26T11:07:38.702Z,41.11
2023-02-26T11:08:38.868Z,38.13
2023-02-26T11:09:39.005Z,37.52
2023-02-26T11:10:39.187Z,38.63
2023-02-26T11:11:39.345Z,40.33
2023-02-26T11:12:39.544Z,43.16
2023-02-26T11:13:39.635Z,42.34
2023-02-26T11:14:39.807Z,46.19
2023-02-26T11:15:40.041Z,46.07
2023-02-26T11:16:40.206Z,44.47
2023-02-26T11:17:40.369Z,44.82
2023-02-26T11:18:40.542Z,42.90
2023-02-26T11:19:40.736Z,42.53
2023-02-26T11:20:40.947Z,40.53
2023-02-26T11:21:41.132Z,40.07
2023-02-26T11:22:41.290Z,39.14
2023-02-26T11:23:41.455Z,38.20
2023-02-26T11:24:41.670Z,38.32
2023-02-26T11:25:41.838Z,38.12
2023-02-26T11:26:42.014Z,38.47
2023-02-26T11:27:42.171Z,37.24
2023-02-26T11:28:42.341Z,36.95
2023-02-26T11:29:42.525Z,37.85
2023-02-26T11:30:42.764Z,39.86
2023-02-26T11:31:42.841Z,40.14
2023-02-26T11:32:43.048Z,41.63
2023-02-26T11:33:43.217Z,39.04
2023-02-26T11:34:43.413Z,40.61
2023-02-26T11:35:43.566Z,42.41
2023-02-26T11:36:43.750Z,43.16
2023-02-26T11:37:43.910Z,44.61
2023-02-26T11:38:44.074Z,45.76
2023-02-26T11:39:44.288Z,44.18
2023-02-26T11:40:44.462Z,46.28
2023-02-26T11:41:44.674Z,47.33
2023-02-26T11:42:44.830Z,47.73
2023-02-26T11:43:45.300Z,46.16
2023-02-26T11:44:45.206Z,44.26
2023-02-26T11:45:45.386Z,46.03
2023-02-26T11:46:45.588Z,46.50
2023-02-26T11:47:45.768Z,46.44
2023-02-26T11:48:45.967Z,48.84
2023-02-26T11:49:46.206Z,48.58
2023-02-26T11:50:46.404Z,49.65
2023-02-26T11:51:46.611Z,50.40
2023-02-26T11:52:46.851Z,50.93
2023-02-26T11:53:47.047Z,50.62
2023-02-26T11:54:47.272Z,51.34
2023-02-26T11:55:47.498Z,52.06
2023-02-26T11:56:47.713Z,52.86
2023-02-26T11:57:47.919Z,50.48
2023-02-26T11:58:48.144Z,50.81
2023-02-26T11:59:48.361Z,52.25
2023-02-26T12:00:48.582Z,52.14
2023-02-26T12:01:48.823Z,51.04
2023-02-26T12:02:49.090Z,50.59
2023-02-26T12:03:49.373Z,50.95
2023-02-26T12:04:49.620Z,50.57
2023-02-26T12:05:49.724Z,49.64
2023-02-26T12:06:49.998Z,47.64
2023-02-26T12:07:50.216Z,47.78
2023-02-26T12:08:50.475Z,47.16
2023-02-26T12:09:50.705Z,47.67
2023-02-26T12:10:50.927Z,47.29
2023-02-26T12:11:51.139Z,48.44
2023-02-26T12:12:51.356Z,48.24
2023-02-26T12:13:51.561Z,49.18
2023-02-26T12:14:51.812Z,49.72
2023-02-26T12:15:52.055Z,50.05
2023-02-26T12:16:52.262Z,51.54
2023-02-26T12:17:52.495Z,52.08
2023-02-26T12:18:52.735Z,52.83
2023-02-26T12:19:52.983Z,53.86
2023-02-26T12:20:53.221Z,54.48
2023-02-26T12:21:53.464Z,54.92
2023-02-26T12:22:53.688Z,53.99
2023-02-26T12:23:53.922Z,54.71
2023-02-26T12:24:54.168Z,54.32
2023-02-26T12:25:54.408Z,52.57
2023-02-26T12:26:54.641Z,53.47
2023-02-26T12:27:54.875Z,51.93
2023-02-26T12:28:55.114Z,50.89
2023-02-26T12:29:55.384Z,46.67
2023-02-26T12:30:55.725Z,44.23
2023-02-26T12:31:55.947Z,42.10
2023-02-26T12:32:56.001Z,41.33
2023-02-26T12:33:56.227Z,41.67
2023-02-26T12:34:56.450Z,38.85
2023-02-26T12:35:56.647Z,36.88
2023-02-26T12:36:56.840Z,37.02
2023-02-26T12:37:57.092Z,37.41
2023-02-26T12:38:57.258Z,38.18
2023-02-26T12:39:57.466Z,36.54
2023-02-26T12:40:57.655Z,36.80
2023-02-26T12:41:57.875Z,36.60
2023-02-26T12:42:58.034Z,39.09
2023-02-26T12:43:58.216Z,38.67
2023-02-26T12:44:58.396Z,38.74
2023-02-26T12:45:58.565Z,40.87
2023-02-26T12:46:58.811Z,43.22
2023-02-26T12:47:58.938Z,46.03
2023-02-26T12:48:59.113Z,46.71
2023-02-26T12:49:59.353Z,47.70
2023-02-26T12:50:59.532Z,49.10
2023-02-26T12:51:59.727Z,51.70
2023-02-26T12:52:59.933Z,51.91
2023-02-26T12:54:00.127Z,52.32
2023-02-26T12:55:00.355Z,51.10
2023-02-26T12:56:00.566Z,51.21